sensor_id;sensor_type;location;lat;lon;timestamp;temperature;humidity
16491;DHT22;8356;51.214;3.270;2023-04-03T00:01:16;230.50;2252.80
16491;DHT22;8356;51.214;3.270;2023-04-03T00:03:42;230.40;2252.80
16491;DHT22;8356;51.214;3.270;2023-04-03T00:06:09;205.70;2252.80
16491;DHT22;8356;51.214;3.270;2023-04-03T00:08:37;205.70;2252.80
16491;DHT22;8356;51.214;3.270;2023-04-03T00:11:03;205.50;2252.80
16491;DHT22;8356;51.214;3.270;2023-04-03T00:13:30;205.50;2252.80
16491;DHT22;8356;51.214;3.270;2023-04-03T00:15:56;205.50;2252.80
16491;DHT22;8356;51.214;3.270;2023-04-03T00:18:22;205.40;2252.80
16491;DHT22;8356;51.214;3.270;2023-04-03T00:20:48;205.50;2252.80
16491;DHT22;8356;51.214;3.270;2023-04-03T00:23:13;205.50;2252.80
16491;DHT22;8356;51.214;3.270;2023-04-03T00:25:40;205.30;2252.80
16491;DHT22;8356;51.214;3.270;2023-04-03T00:28:06;205.20;2252.80
16491;DHT22;8356;51.214;3.270;2023-04-03T00:30:32;205.30;2252.80
16491;DHT22;8356;51.214;3.270;2023-04-03T00:32:58;205.20;2252.80
16491;DHT22;8356;51.214;3.270;2023-04-03T00:35:24;205.30;2252.80
16491;DHT22;8356;51.214;3.270;2023-04-03T00:37:54;205.50;2252.80
16491;DHT22;8356;51.214;3.270;2023-04-03T00:40:22;205.30;2252.80
16491;DHT22;8356;51.214;3.270;2023-04-03T00:42:50;205.40;2252.80
16491;DHT22;8356;51.214;3.270;2023-04-03T00:45:38;205.40;2252.80
16491;DHT22;8356;51.214;3.270;2023-04-03T00:48:07;205.20;2252.80
16491;DHT22;8356;51.214;3.270;2023-04-03T00:50:38;205.20;2252.80
16491;DHT22;8356;51.214;3.270;2023-04-03T00:53:06;205.20;2252.80
16491;DHT22;8356;51.214;3.270;2023-04-03T00:55:34;205.30;2252.80
16491;DHT22;8356;51.214;3.270;2023-04-03T00:58:01;205.10;2252.80
16491;DHT22;8356;51.214;3.270;2023-04-03T01:00:27;205.10;2252.80
16491;DHT22;8356;51.214;3.270;2023-04-03T01:02:53;205.20;2252.80
16491;DHT22;8356;51.214;3.270;2023-04-03T01:05:20;205.20;2252.80
16491;DHT22;8356;51.214;3.270;2023-04-03T01:07:47;205.20;2252.80
16491;DHT22;8356;51.214;3.270;2023-04-03T01:10:16;205.20;2252.80
16491;DHT22;8356;51.214;3.270;2023-04-03T01:12:44;205.10;2252.80
16491;DHT22;8356;51.214;3.270;2023-04-03T01:15:14;204.90;2252.80
16491;DHT22;8356;51.214;3.270;2023-04-03T01:25:49;205.10;2252.80
16491;DHT22;8356;51.214;3.270;2023-04-03T01:31:38;205.30;2252.80
16491;DHT22;8356;51.214;3.270;2023-04-03T01:34:04;205.30;2252.80
16491;DHT22;8356;51.214;3.270;2023-04-03T01:36:31;205.00;2252.80
16491;DHT22;8356;51.214;3.270;2023-04-03T01:38:58;205.00;2252.80
16491;DHT22;8356;51.214;3.270;2023-04-03T01:41:24;205.00;2252.80
16491;DHT22;8356;51.214;3.270;2023-04-03T01:43:51;205.10;2252.80
16491;DHT22;8356;51.214;3.270;2023-04-03T01:46:18;205.20;2252.80
16491;DHT22;8356;51.214;3.270;2023-04-03T01:48:44;205.30;2252.80
16491;DHT22;8356;51.214;3.270;2023-04-03T01:51:10;205.20;2252.80
16491;DHT22;8356;51.214;3.270;2023-04-03T01:53:36;205.00;2252.80
16491;DHT22;8356;51.214;3.270;2023-04-03T01:56:01;205.00;2252.80
16491;DHT22;8356;51.214;3.270;2023-04-03T01:58:27;204.90;2252.80
16491;DHT22;8356;51.214;3.270;2023-04-03T02:00:53;205.00;2252.80
16491;DHT22;8356;51.214;3.270;2023-04-03T02:03:19;204.90;2252.80
16491;DHT22;8356;51.214;3.270;2023-04-03T02:05:45;205.00;2252.80
16491;DHT22;8356;51.214;3.270;2023-04-03T02:08:10;204.90;2252.80
16491;DHT22;8356;51.214;3.270;2023-04-03T02:10:36;204.90;2252.80
16491;DHT22;8356;51.214;3.270;2023-04-03T02:13:02;204.90;2252.80
16491;DHT22;8356;51.214;3.270;2023-04-03T02:15:28;205.00;2252.80
16491;DHT22;8356;51.214;3.270;2023-04-03T02:17:54;205.00;2252.80
16491;DHT22;8356;51.214;3.270;2023-04-03T02:20:20;204.80;2252.80
16491;DHT22;8356;51.214;3.270;2023-04-03T02:22:45;180.10;2252.80
16491;DHT22;8356;51.214;3.270;2023-04-03T02:25:11;180.10;2252.80
16491;DHT22;8356;51.214;3.270;2023-04-03T02:27:38;180.00;2252.80
16491;DHT22;8356;51.214;3.270;2023-04-03T02:30:04;180.00;2252.80
16491;DHT22;8356;51.214;3.270;2023-04-03T02:32:31;180.10;2252.80
16491;DHT22;8356;51.214;3.270;2023-04-03T02:34:56;204.90;2252.80
16491;DHT22;8356;51.214;3.270;2023-04-03T02:37:22;204.80;2252.80
16491;DHT22;8356;51.214;3.270;2023-04-03T02:39:48;204.90;2252.80
16491;DHT22;8356;51.214;3.270;2023-04-03T02:42:13;180.00;2252.80
16491;DHT22;8356;51.214;3.270;2023-04-03T02:44:39;180.00;2252.80
16491;DHT22;8356;51.214;3.270;2023-04-03T02:47:05;180.00;2252.80
16491;DHT22;8356;51.214;3.270;2023-04-03T02:49:30;180.00;2252.80
16491;DHT22;8356;51.214;3.270;2023-04-03T02:51:56;179.90;2252.80
16491;DHT22;8356;51.214;3.270;2023-04-03T02:54:22;179.90;2252.80
16491;DHT22;8356;51.214;3.270;2023-04-03T02:56:49;180.10;2252.80
16491;DHT22;8356;51.214;3.270;2023-04-03T02:59:15;204.80;2252.80
16491;DHT22;8356;51.214;3.270;2023-04-03T03:01:41;180.10;2252.80
16491;DHT22;8356;51.214;3.270;2023-04-03T03:04:06;204.80;2252.80
16491;DHT22;8356;51.214;3.270;2023-04-03T03:06:32;204.90;2252.80
16491;DHT22;8356;51.214;3.270;2023-04-03T03:08:58;204.80;2252.80
16491;DHT22;8356;51.214;3.270;2023-04-03T03:11:23;204.90;2252.80
16491;DHT22;8356;51.214;3.270;2023-04-03T03:13:50;204.80;2252.80
16491;DHT22;8356;51.214;3.270;2023-04-03T03:16:16;204.80;2252.80
16491;DHT22;8356;51.214;3.270;2023-04-03T03:18:41;204.80;2252.80
16491;DHT22;8356;51.214;3.270;2023-04-03T03:21:09;204.80;2252.80
16491;DHT22;8356;51.214;3.270;2023-04-03T03:23:35;205.00;2252.80
16491;DHT22;8356;51.214;3.270;2023-04-03T03:26:03;204.80;2252.80
16491;DHT22;8356;51.214;3.270;2023-04-03T03:28:29;204.80;2252.80
16491;DHT22;8356;51.214;3.270;2023-04-03T03:30:56;204.80;2252.80
16491;DHT22;8356;51.214;3.270;2023-04-03T03:33:22;180.10;2252.80
16491;DHT22;8356;51.214;3.270;2023-04-03T03:35:47;180.10;2252.80
16491;DHT22;8356;51.214;3.270;2023-04-03T03:38:13;180.00;2252.80
16491;DHT22;8356;51.214;3.270;2023-04-03T03:40:39;180.10;2252.80
16491;DHT22;8356;51.214;3.270;2023-04-03T03:43:04;180.10;2252.80
16491;DHT22;8356;51.214;3.270;2023-04-03T03:45:30;180.00;2252.80
16491;DHT22;8356;51.214;3.270;2023-04-03T03:47:56;180.10;2252.80
16491;DHT22;8356;51.214;3.270;2023-04-03T03:50:22;204.90;2252.80
16491;DHT22;8356;51.214;3.270;2023-04-03T03:52:47;180.10;2252.80
16491;DHT22;8356;51.214;3.270;2023-04-03T03:55:13;179.90;2252.80
16491;DHT22;8356;51.214;3.270;2023-04-03T03:57:39;179.80;2252.80
16491;DHT22;8356;51.214;3.270;2023-04-03T04:00:06;179.90;2252.80
16491;DHT22;8356;51.214;3.270;2023-04-03T04:02:32;179.70;2252.80
16491;DHT22;8356;51.214;3.270;2023-04-03T04:04:58;179.70;2252.80
16491;DHT22;8356;51.214;3.270;2023-04-03T04:07:24;179.70;2252.80
16491;DHT22;8356;51.214;3.270;2023-04-03T04:09:49;179.80;2252.80
16491;DHT22;8356;51.214;3.270;2023-04-03T04:12:15;179.80;2252.80
16491;DHT22;8356;51.214;3.270;2023-04-03T04:14:41;179.80;2252.80
16491;DHT22;8356;51.214;3.270;2023-04-03T04:17:07;179.30;2252.80
16491;DHT22;8356;51.214;3.270;2023-04-03T04:19:32;179.20;2252.80
16491;DHT22;8356;51.214;3.270;2023-04-03T04:21:58;179.50;2252.80
16491;DHT22;8356;51.214;3.270;2023-04-03T04:24:24;179.50;2252.80
16491;DHT22;8356;51.214;3.270;2023-04-03T04:26:50;179.60;2252.80
16491;DHT22;8356;51.214;3.270;2023-04-03T04:29:16;179.60;2252.80
16491;DHT22;8356;51.214;3.270;2023-04-03T04:31:41;179.60;2252.80
16491;DHT22;8356;51.214;3.270;2023-04-03T04:34:07;179.60;2252.80
16491;DHT22;8356;51.214;3.270;2023-04-03T04:36:33;179.80;2252.80
16491;DHT22;8356;51.214;3.270;2023-04-03T04:38:58;179.80;2252.80
16491;DHT22;8356;51.214;3.270;2023-04-03T04:41:24;179.50;2252.80
16491;DHT22;8356;51.214;3.270;2023-04-03T04:43:50;179.60;2252.80
16491;DHT22;8356;51.214;3.270;2023-04-03T04:46:16;179.70;2252.80
16491;DHT22;8356;51.214;3.270;2023-04-03T04:48:42;179.70;2252.80
16491;DHT22;8356;51.214;3.270;2023-04-03T04:51:08;179.90;2252.80
16491;DHT22;8356;51.214;3.270;2023-04-03T04:53:33;180.00;2252.80
16491;DHT22;8356;51.214;3.270;2023-04-03T04:55:59;179.70;2252.80
16491;DHT22;8356;51.214;3.270;2023-04-03T04:58:25;179.70;2252.80
16491;DHT22;8356;51.214;3.270;2023-04-03T05:00:59;179.30;2252.80
16491;DHT22;8356;51.214;3.270;2023-04-03T05:03:25;179.50;2252.80
16491;DHT22;8356;51.214;3.270;2023-04-03T05:05:50;179.40;2252.80
16491;DHT22;8356;51.214;3.270;2023-04-03T05:08:16;179.40;2252.80
16491;DHT22;8356;51.214;3.270;2023-04-03T05:10:42;179.60;2252.80
16491;DHT22;8356;51.214;3.270;2023-04-03T05:13:08;179.80;2252.80
16491;DHT22;8356;51.214;3.270;2023-04-03T05:15:33;179.80;2252.80
16491;DHT22;8356;51.214;3.270;2023-04-03T05:17:59;179.60;2252.80
16491;DHT22;8356;51.214;3.270;2023-04-03T05:20:25;179.30;2252.80
16491;DHT22;8356;51.214;3.270;2023-04-03T05:22:50;179.30;2252.80
16491;DHT22;8356;51.214;3.270;2023-04-03T05:25:16;179.40;2252.80
16491;DHT22;8356;51.214;3.270;2023-04-03T05:27:41;179.40;2252.80
16491;DHT22;8356;51.214;3.270;2023-04-03T05:30:10;179.30;2252.80
16491;DHT22;8356;51.214;3.270;2023-04-03T05:32:36;179.20;2252.80
16491;DHT22;8356;51.214;3.270;2023-04-03T05:35:02;154.50;2252.80
16491;DHT22;8356;51.214;3.270;2023-04-03T05:37:28;154.40;2252.80
16491;DHT22;8356;51.214;3.270;2023-04-03T05:39:53;154.50;2252.80
16491;DHT22;8356;51.214;3.270;2023-04-03T05:42:19;154.40;2252.80
16491;DHT22;8356;51.214;3.270;2023-04-03T05:44:45;154.40;2252.80
16491;DHT22;8356;51.214;3.270;2023-04-03T05:47:12;179.20;2252.80
16491;DHT22;8356;51.214;3.270;2023-04-03T05:49:38;154.50;2252.80
16491;DHT22;8356;51.214;3.270;2023-04-03T05:52:12;179.20;2252.80
16491;DHT22;8356;51.214;3.270;2023-04-03T05:54:43;179.40;2252.80
16491;DHT22;8356;51.214;3.270;2023-04-03T05:57:09;179.30;2252.80
16491;DHT22;8356;51.214;3.270;2023-04-03T05:59:35;179.30;2252.80
16491;DHT22;8356;51.214;3.270;2023-04-03T06:02:01;179.20;2252.80
16491;DHT22;8356;51.214;3.270;2023-04-03T06:04:27;179.40;2252.80
16491;DHT22;8356;51.214;3.270;2023-04-03T06:06:55;179.40;2252.80
16491;DHT22;8356;51.214;3.270;2023-04-03T06:09:24;179.50;2252.80
16491;DHT22;8356;51.214;3.270;2023-04-03T06:11:50;179.50;2252.80
16491;DHT22;8356;51.214;3.270;2023-04-03T06:14:15;179.60;2252.80
16491;DHT22;8356;51.214;3.270;2023-04-03T06:16:41;179.80;2252.80
16491;DHT22;8356;51.214;3.270;2023-04-03T06:19:07;179.90;2252.80
16491;DHT22;8356;51.214;3.270;2023-04-03T06:21:33;179.90;2252.80
16491;DHT22;8356;51.214;3.270;2023-04-03T06:23:59;179.90;2252.80
16491;DHT22;8356;51.214;3.270;2023-04-03T06:26:25;179.80;2252.80
16491;DHT22;8356;51.214;3.270;2023-04-03T06:28:51;180.00;2252.80
16491;DHT22;8356;51.214;3.270;2023-04-03T06:31:17;180.00;2252.80
16491;DHT22;8356;51.214;3.270;2023-04-03T06:33:42;179.90;2252.80
16491;DHT22;8356;51.214;3.270;2023-04-03T06:36:10;180.00;2252.80
16491;DHT22;8356;51.214;3.270;2023-04-03T06:38:36;180.00;2252.80
16491;DHT22;8356;51.214;3.270;2023-04-03T06:41:02;179.90;2252.80
16491;DHT22;8356;51.214;3.270;2023-04-03T06:43:28;179.90;2252.80
16491;DHT22;8356;51.214;3.270;2023-04-03T06:45:53;179.90;2252.80
16491;DHT22;8356;51.214;3.270;2023-04-03T06:48:19;180.10;2252.80
16491;DHT22;8356;51.214;3.270;2023-04-03T06:50:45;204.80;2252.80
16491;DHT22;8356;51.214;3.270;2023-04-03T06:53:10;205.00;2252.80
16491;DHT22;8356;51.214;3.270;2023-04-03T06:55:37;204.90;2252.80
16491;DHT22;8356;51.214;3.270;2023-04-03T06:58:04;204.80;2252.80
16491;DHT22;8356;51.214;3.270;2023-04-03T07:00:30;180.00;2252.80
16491;DHT22;8356;51.214;3.270;2023-04-03T07:02:56;180.00;2252.80
16491;DHT22;8356;51.214;3.270;2023-04-03T07:05:23;179.80;2252.80
16491;DHT22;8356;51.214;3.270;2023-04-03T07:07:49;179.70;2252.80
16491;DHT22;8356;51.214;3.270;2023-04-03T07:10:16;179.70;2252.80
16491;DHT22;8356;51.214;3.270;2023-04-03T07:12:41;179.80;2252.80
16491;DHT22;8356;51.214;3.270;2023-04-03T07:15:08;179.70;2252.80
16491;DHT22;8356;51.214;3.270;2023-04-03T07:17:34;179.80;2252.80
16491;DHT22;8356;51.214;3.270;2023-04-03T07:20:02;179.90;2252.80
16491;DHT22;8356;51.214;3.270;2023-04-03T07:22:28;180.00;2252.80
16491;DHT22;8356;51.214;3.270;2023-04-03T07:24:53;204.80;2252.80
16491;DHT22;8356;51.214;3.270;2023-04-03T07:27:19;204.80;2252.80
16491;DHT22;8356;51.214;3.270;2023-04-03T07:29:45;205.00;2252.80
16491;DHT22;8356;51.214;3.270;2023-04-03T07:32:11;205.20;2252.80
16491;DHT22;8356;51.214;3.270;2023-04-03T07:34:37;205.30;2252.80
16491;DHT22;8356;51.214;3.270;2023-04-03T07:37:02;205.60;2252.80
16491;DHT22;8356;51.214;3.270;2023-04-03T07:39:29;230.70;2252.80
16491;DHT22;8356;51.214;3.270;2023-04-03T07:41:54;230.60;2252.80
16491;DHT22;8356;51.214;3.270;2023-04-03T07:44:23;230.50;2252.80
16491;DHT22;8356;51.214;3.270;2023-04-03T07:46:49;230.90;2252.80
16491;DHT22;8356;51.214;3.270;2023-04-03T07:49:16;230.80;2252.80
16491;DHT22;8356;51.214;3.270;2023-04-03T07:51:44;230.70;2252.80
16491;DHT22;8356;51.214;3.270;2023-04-03T07:54:09;231.00;2252.80
16491;DHT22;8356;51.214;3.270;2023-04-03T07:56:35;231.30;2252.80
16491;DHT22;8356;51.214;3.270;2023-04-03T07:59:01;256.10;2252.80
16491;DHT22;8356;51.214;3.270;2023-04-03T08:01:27;256.40;2252.80
16491;DHT22;8356;51.214;3.270;2023-04-03T08:03:53;256.50;2252.80
16491;DHT22;8356;51.214;3.270;2023-04-03T08:06:18;256.70;2252.80
16491;DHT22;8356;51.214;3.270;2023-04-03T08:08:44;256.70;2252.80
16491;DHT22;8356;51.214;3.270;2023-04-03T08:11:11;256.60;2252.80
16491;DHT22;8356;51.214;3.270;2023-04-03T08:13:37;256.30;2252.80
16491;DHT22;8356;51.214;3.270;2023-04-03T08:16:15;256.30;2252.80
16491;DHT22;8356;51.214;3.270;2023-04-03T08:18:42;256.60;2252.80
16491;DHT22;8356;51.214;3.270;2023-04-03T08:21:11;256.70;2252.80
16491;DHT22;8356;51.214;3.270;2023-04-03T08:23:38;256.90;2252.80
16491;DHT22;8356;51.214;3.270;2023-04-03T08:26:12;281.70;2278.40
16491;DHT22;8356;51.214;3.270;2023-04-03T08:28:39;281.70;2278.40
16491;DHT22;8356;51.214;3.270;2023-04-03T08:31:07;281.90;2278.40
16491;DHT22;8356;51.214;3.270;2023-04-03T08:33:34;281.80;2278.40
16491;DHT22;8356;51.214;3.270;2023-04-03T08:36:02;281.90;2278.40
16491;DHT22;8356;51.214;3.270;2023-04-03T08:38:28;282.00;2278.40
16491;DHT22;8356;51.214;3.270;2023-04-03T08:41:31;282.20;2278.40
16491;DHT22;8356;51.214;3.270;2023-04-03T08:46:50;282.20;2278.40
16491;DHT22;8356;51.214;3.270;2023-04-03T08:51:51;282.10;2278.40
16491;DHT22;8356;51.214;3.270;2023-04-03T08:54:24;282.30;2278.40
16491;DHT22;8356;51.214;3.270;2023-04-03T08:56:52;282.30;2278.40
16491;DHT22;8356;51.214;3.270;2023-04-03T08:59:26;307.20;2304.00
16491;DHT22;8356;51.214;3.270;2023-04-03T09:01:53;307.40;2304.00
16491;DHT22;8356;51.214;3.270;2023-04-03T09:04:19;307.50;2304.00
16491;DHT22;8356;51.214;3.270;2023-04-03T09:06:58;307.70;2304.00
16491;DHT22;8356;51.214;3.270;2023-04-03T09:09:30;307.70;2304.00
16491;DHT22;8356;51.214;3.270;2023-04-03T09:12:12;307.80;2304.00
16491;DHT22;8356;51.214;3.270;2023-04-03T09:22:32;307.60;2304.00
16491;DHT22;8356;51.214;3.270;2023-04-03T09:25:13;307.80;2304.00
16491;DHT22;8356;51.214;3.270;2023-04-03T09:27:40;307.80;2304.00
16491;DHT22;8356;51.214;3.270;2023-04-03T09:30:13;308.00;2304.00
16491;DHT22;8356;51.214;3.270;2023-04-03T09:32:39;308.10;2304.00
16491;DHT22;8356;51.214;3.270;2023-04-03T09:37:52;332.90;2329.60
16491;DHT22;8356;51.214;3.270;2023-04-03T09:40:36;332.90;2329.60
16491;DHT22;8356;51.214;3.270;2023-04-03T09:43:21;308.10;2304.00
16491;DHT22;8356;51.214;3.270;2023-04-03T09:45:49;332.80;2329.60
16491;DHT22;8356;51.214;3.270;2023-04-03T09:48:19;308.10;2304.00
16491;DHT22;8356;51.214;3.270;2023-04-03T09:56:19;332.90;2329.60
16491;DHT22;8356;51.214;3.270;2023-04-03T10:01:39;333.20;2329.60
16491;DHT22;8356;51.214;3.270;2023-04-03T10:06:34;332.90;2329.60
16491;DHT22;8356;51.214;3.270;2023-04-03T10:14:40;332.90;2329.60
16491;DHT22;8356;51.214;3.270;2023-04-03T10:28:23;333.30;2329.60
16491;DHT22;8356;51.214;3.270;2023-04-03T10:39:26;333.50;2329.60
16491;DHT22;8356;51.214;3.270;2023-04-03T10:45:01;332.90;2329.60
16491;DHT22;8356;51.214;3.270;2023-04-03T10:50:27;333.50;2329.60
16491;DHT22;8356;51.214;3.270;2023-04-03T10:55:50;333.50;2329.60
16491;DHT22;8356;51.214;3.270;2023-04-03T10:58:26;333.20;2329.60
16491;DHT22;8356;51.214;3.270;2023-04-03T11:00:59;333.40;2329.60
16491;DHT22;8356;51.214;3.270;2023-04-03T11:03:47;333.40;2329.60
16491;DHT22;8356;51.214;3.270;2023-04-03T11:06:15;333.20;2329.60
16491;DHT22;8356;51.214;3.270;2023-04-03T11:09:02;333.20;2329.60
16491;DHT22;8356;51.214;3.270;2023-04-03T11:11:37;333.30;2329.60
16491;DHT22;8356;51.214;3.270;2023-04-03T11:14:24;333.60;2329.60
16491;DHT22;8356;51.214;3.270;2023-04-03T11:17:01;358.50;2329.60
16491;DHT22;8356;51.214;3.270;2023-04-03T11:24:39;358.70;2329.60
16491;DHT22;8356;51.214;3.270;2023-04-03T11:27:17;358.40;2329.60
16491;DHT22;8356;51.214;3.270;2023-04-03T11:29:47;358.60;2329.60
16491;DHT22;8356;51.214;3.270;2023-04-03T11:35:01;358.40;2329.60
16491;DHT22;8356;51.214;3.270;2023-04-03T11:40:04;358.80;2329.60
16491;DHT22;8356;51.214;3.270;2023-04-03T11:47:46;358.80;2329.60
16491;DHT22;8356;51.214;3.270;2023-04-03T11:52:59;358.80;2329.60
16491;DHT22;8356;51.214;3.270;2023-04-03T11:58:17;359.20;2329.60
16491;DHT22;8356;51.214;3.270;2023-04-03T12:00:50;384.10;2329.60
16491;DHT22;8356;51.214;3.270;2023-04-03T12:13:35;384.40;2329.60
16491;DHT22;8356;51.214;3.270;2023-04-03T12:16:02;384.40;2329.60
16491;DHT22;8356;51.214;3.270;2023-04-03T12:48:38;384.50;2329.60
16491;DHT22;8356;51.214;3.270;2023-04-03T12:51:05;384.60;2329.60
16491;DHT22;8356;51.214;3.270;2023-04-03T12:53:37;384.90;2329.60
16491;DHT22;8356;51.214;3.270;2023-04-03T12:56:25;384.60;2329.60
16491;DHT22;8356;51.214;3.270;2023-04-03T12:58:54;384.40;2329.60
16491;DHT22;8356;51.214;3.270;2023-04-03T13:01:23;384.60;2329.60
16491;DHT22;8356;51.214;3.270;2023-04-03T13:03:55;409.60;2355.20
16491;DHT22;8356;51.214;3.270;2023-04-03T13:06:40;409.60;2355.20
16491;DHT22;8356;51.214;3.270;2023-04-03T13:09:17;409.70;2355.20
16491;DHT22;8356;51.214;3.270;2023-04-03T13:11:44;409.60;2355.20
16491;DHT22;8356;51.214;3.270;2023-04-03T13:14:22;384.60;2329.60
16491;DHT22;8356;51.214;3.270;2023-04-03T13:16:56;384.40;2329.60
16491;DHT22;8356;51.214;3.270;2023-04-03T13:19:26;384.60;2329.60
16491;DHT22;8356;51.214;3.270;2023-04-03T13:22:07;384.60;2329.60
16491;DHT22;8356;51.214;3.270;2023-04-03T13:24:37;384.70;2329.60
16491;DHT22;8356;51.214;3.270;2023-04-03T13:27:06;409.80;2355.20
16491;DHT22;8356;51.214;3.270;2023-04-03T13:29:35;410.20;2355.20
16491;DHT22;8356;51.214;3.270;2023-04-03T13:32:02;410.30;2355.20
16491;DHT22;8356;51.214;3.270;2023-04-03T13:34:36;409.90;2355.20
16491;DHT22;8356;51.214;3.270;2023-04-03T13:37:03;410.00;2355.20
16491;DHT22;8356;51.214;3.270;2023-04-03T13:39:38;384.70;2329.60
16491;DHT22;8356;51.214;3.270;2023-04-03T13:42:25;384.80;2329.60
16491;DHT22;8356;51.214;3.270;2023-04-03T13:47:47;409.90;2355.20
16491;DHT22;8356;51.214;3.270;2023-04-03T13:52:59;384.10;2329.60
16491;DHT22;8356;51.214;3.270;2023-04-03T13:55:30;384.10;2329.60
16491;DHT22;8356;51.214;3.270;2023-04-03T13:58:21;384.40;2329.60
16491;DHT22;8356;51.214;3.270;2023-04-03T14:00:51;384.90;2329.60
16491;DHT22;8356;51.214;3.270;2023-04-03T14:03:30;384.70;2329.60
16491;DHT22;8356;51.214;3.270;2023-04-03T14:05:57;384.40;2329.60
16491;DHT22;8356;51.214;3.270;2023-04-03T14:08:22;409.60;2355.20
16491;DHT22;8356;51.214;3.270;2023-04-03T14:10:49;409.90;2355.20
16491;DHT22;8356;51.214;3.270;2023-04-03T14:13:17;410.20;2355.20
16491;DHT22;8356;51.214;3.270;2023-04-03T14:15:44;409.90;2355.20
16491;DHT22;8356;51.214;3.270;2023-04-03T14:18:15;410.20;2355.20
16491;DHT22;8356;51.214;3.270;2023-04-03T14:20:42;409.80;2355.20
16491;DHT22;8356;51.214;3.270;2023-04-03T14:23:08;409.80;2355.20
16491;DHT22;8356;51.214;3.270;2023-04-03T14:25:34;409.90;2355.20
16491;DHT22;8356;51.214;3.270;2023-04-03T14:28:00;384.80;2329.60
16491;DHT22;8356;51.214;3.270;2023-04-03T14:30:29;409.60;2355.20
16491;DHT22;8356;51.214;3.270;2023-04-03T14:32:56;409.80;2355.20
16491;DHT22;8356;51.214;3.270;2023-04-03T14:35:23;384.90;2329.60
16491;DHT22;8356;51.214;3.270;2023-04-03T14:37:49;409.60;2355.20
16491;DHT22;8356;51.214;3.270;2023-04-03T14:40:22;384.60;2329.60
16491;DHT22;8356;51.214;3.270;2023-04-03T14:42:48;384.80;2329.60
16491;DHT22;8356;51.214;3.270;2023-04-03T14:45:15;384.40;2329.60
16491;DHT22;8356;51.214;3.270;2023-04-03T14:47:47;384.80;2329.60
16491;DHT22;8356;51.214;3.270;2023-04-03T14:50:15;384.50;2329.60
16491;DHT22;8356;51.214;3.270;2023-04-03T14:52:41;384.60;2329.60
16491;DHT22;8356;51.214;3.270;2023-04-03T14:55:07;384.20;2329.60
16491;DHT22;8356;51.214;3.270;2023-04-03T14:57:34;384.40;2329.60
16491;DHT22;8356;51.214;3.270;2023-04-03T15:00:00;384.20;2329.60
16491;DHT22;8356;51.214;3.270;2023-04-03T15:04:56;384.60;2329.60
16491;DHT22;8356;51.214;3.270;2023-04-03T15:07:23;409.60;2355.20
16491;DHT22;8356;51.214;3.270;2023-04-03T15:09:49;384.70;2329.60
16491;DHT22;8356;51.214;3.270;2023-04-03T15:12:15;384.80;2329.60
16491;DHT22;8356;51.214;3.270;2023-04-03T15:14:41;409.60;2355.20
16491;DHT22;8356;51.214;3.270;2023-04-03T15:17:14;384.40;2329.60
16491;DHT22;8356;51.214;3.270;2023-04-03T15:19:40;384.30;2329.60
16491;DHT22;8356;51.214;3.270;2023-04-03T15:22:08;384.70;2329.60
16491;DHT22;8356;51.214;3.270;2023-04-03T15:24:35;384.70;2329.60
16491;DHT22;8356;51.214;3.270;2023-04-03T15:27:01;384.30;2329.60
16491;DHT22;8356;51.214;3.270;2023-04-03T15:29:27;359.30;2329.60
16491;DHT22;8356;51.214;3.270;2023-04-03T15:31:53;359.20;2329.60
16491;DHT22;8356;51.214;3.270;2023-04-03T15:34:19;359.20;2329.60
16491;DHT22;8356;51.214;3.270;2023-04-03T15:36:46;358.90;2329.60
16491;DHT22;8356;51.214;3.270;2023-04-03T15:39:12;359.30;2329.60
16491;DHT22;8356;51.214;3.270;2023-04-03T15:41:37;359.20;2329.60
16491;DHT22;8356;51.214;3.270;2023-04-03T15:44:03;359.00;2329.60
16491;DHT22;8356;51.214;3.270;2023-04-03T15:46:29;358.70;2329.60
16491;DHT22;8356;51.214;3.270;2023-04-03T15:48:55;358.90;2329.60
16491;DHT22;8356;51.214;3.270;2023-04-03T15:51:21;359.00;2329.60
16491;DHT22;8356;51.214;3.270;2023-04-03T15:53:46;359.20;2329.60
16491;DHT22;8356;51.214;3.270;2023-04-03T15:56:12;359.30;2329.60
16491;DHT22;8356;51.214;3.270;2023-04-03T15:58:37;384.20;2329.60
16491;DHT22;8356;51.214;3.270;2023-04-03T16:01:03;384.40;2329.60
16491;DHT22;8356;51.214;3.270;2023-04-03T16:03:29;384.10;2329.60
16491;DHT22;8356;51.214;3.270;2023-04-03T16:05:55;359.20;2329.60
16491;DHT22;8356;51.214;3.270;2023-04-03T16:08:21;359.20;2329.60
16491;DHT22;8356;51.214;3.270;2023-04-03T16:10:47;359.30;2329.60
16491;DHT22;8356;51.214;3.270;2023-04-03T16:13:13;359.30;2329.60
16491;DHT22;8356;51.214;3.270;2023-04-03T16:15:40;358.70;2329.60
16491;DHT22;8356;51.214;3.270;2023-04-03T16:18:06;359.00;2329.60
16491;DHT22;8356;51.214;3.270;2023-04-03T16:20:34;359.20;2329.60
16491;DHT22;8356;51.214;3.270;2023-04-03T16:23:00;359.00;2329.60
16491;DHT22;8356;51.214;3.270;2023-04-03T16:25:27;359.20;2329.60
16491;DHT22;8356;51.214;3.270;2023-04-03T16:27:53;384.30;2329.60
16491;DHT22;8356;51.214;3.270;2023-04-03T16:30:19;359.20;2329.60
16491;DHT22;8356;51.214;3.270;2023-04-03T16:32:45;359.00;2329.60
16491;DHT22;8356;51.214;3.270;2023-04-03T16:35:11;359.20;2329.60
16491;DHT22;8356;51.214;3.270;2023-04-03T16:37:37;359.00;2329.60
16491;DHT22;8356;51.214;3.270;2023-04-03T16:40:05;358.70;2329.60
16491;DHT22;8356;51.214;3.270;2023-04-03T16:42:31;358.40;2329.60
16491;DHT22;8356;51.214;3.270;2023-04-03T16:44:56;358.80;2329.60
16491;DHT22;8356;51.214;3.270;2023-04-03T16:47:24;358.60;2329.60
16491;DHT22;8356;51.214;3.270;2023-04-03T16:49:49;358.60;2329.60
16491;DHT22;8356;51.214;3.270;2023-04-03T16:52:15;358.80;2329.60
16491;DHT22;8356;51.214;3.270;2023-04-03T16:54:41;358.60;2329.60
16491;DHT22;8356;51.214;3.270;2023-04-03T16:57:06;333.70;2329.60
16491;DHT22;8356;51.214;3.270;2023-04-03T16:59:32;333.30;2329.60
16491;DHT22;8356;51.214;3.270;2023-04-03T17:01:58;333.50;2329.60
16491;DHT22;8356;51.214;3.270;2023-04-03T17:04:23;333.50;2329.60
16491;DHT22;8356;51.214;3.270;2023-04-03T17:06:50;333.50;2329.60
16491;DHT22;8356;51.214;3.270;2023-04-03T17:09:17;333.50;2329.60
16491;DHT22;8356;51.214;3.270;2023-04-03T17:11:43;333.70;2329.60
16491;DHT22;8356;51.214;3.270;2023-04-03T17:14:08;333.40;2329.60
16491;DHT22;8356;51.214;3.270;2023-04-03T17:16:36;333.30;2329.60
16491;DHT22;8356;51.214;3.270;2023-04-03T17:19:02;333.30;2329.60
16491;DHT22;8356;51.214;3.270;2023-04-03T17:21:28;308.10;2304.00
16491;DHT22;8356;51.214;3.270;2023-04-03T17:23:57;333.40;2329.60
16491;DHT22;8356;51.214;3.270;2023-04-03T17:26:25;333.70;2329.60
16491;DHT22;8356;51.214;3.270;2023-04-03T17:28:51;358.50;2329.60